aviador You're here:

CYQB Decoded Metar

QUEBEC in QC, CANADA
Report Time2017-08-06 08:00:00
UTC Time2017-08-22 22:23:55
Flight Rules Old
Wind210° at 12 Gusting to 17 kt
W.Decomp.*RWY 24: 11.7 kt HW 2.7 kt LCW
RWY 30: 3.5 kt HW 11.5 kt LCW
W.Rank210° ranks 17
Current wind is above 210° avg. (7.3)
Visibility9999 m
Phenomena:N/A
Clouds:Few 013 Hf
Broken 022 Hf
Overcast 060 Hf
Expected CloudBase > 800 ft AGL from Temp-Dew spread
Ceiling2,200 ft
Temp16°C (ISA +1)
Dew Point14°C (88% RH)
AAT12.9°C
QNH1007 hPa
Density Alt833 ft
Elevation240 ft
Report Wrong Elevation
Raw Report
CYQB 060800Z 21012G17KT 15SM FEW013 BKN022 OVC060 16/14 A2974 RMK
SF2SC5SC1 SLP074 DENSITY ALT 600FT=

Extra information for CYQB:More info

Metar Taf Metar & Taf Last 4 Metars F.Rules Stats Wind Profile Meteogram Temp Stats Airport Information Weather charts Add Link Nearby VenuesMetar ALERT Operation Metar Decoded Social comments

navcanada